createdAt,value
2023-05-03T00:01:57.274Z,81.85
2023-05-03T00:04:02.065Z,81.89
2023-05-03T00:06:12.499Z,81.81
2023-05-03T00:08:15.935Z,81.90
2023-05-03T00:10:19.463Z,83.50
2023-05-03T00:12:23.137Z,82.89
2023-05-03T00:14:26.452Z,82.12
2023-05-03T00:16:29.712Z,82.18
2023-05-03T00:18:32.951Z,83.65
2023-05-03T00:20:37.461Z,82.51
2023-05-03T00:22:40.526Z,82.06
2023-05-03T00:24:43.576Z,82.32
2023-05-03T00:26:46.607Z,81.83
2023-05-03T00:28:49.673Z,81.88
2023-05-03T00:30:52.933Z,82.18
2023-05-03T00:32:56.198Z,82.93
2023-05-03T00:34:59.471Z,82.55
2023-05-03T00:37:04.148Z,82.33
2023-05-03T00:39:07.210Z,83.26
2023-05-03T00:41:11.177Z,83.79
2023-05-03T00:43:14.429Z,82.51
2023-05-03T00:45:17.603Z,83.11
2023-05-03T00:47:22.359Z,83.26
2023-05-03T00:49:25.717Z,83.24
2023-05-03T00:51:28.867Z,82.61
2023-05-03T00:53:33.328Z,83.73
2023-05-03T00:55:37.405Z,82.51
2023-05-03T00:57:40.735Z,83.97
2023-05-03T00:59:43.946Z,83.60
2023-05-03T01:01:49.516Z,84.41
2023-05-03T01:03:52.808Z,83.19
2023-05-03T01:06:02.838Z,83.64
2023-05-03T01:08:10.978Z,83.96
2023-05-03T01:10:21.937Z,82.64
2023-05-03T01:12:31.937Z,82.79
2023-05-03T01:14:48.756Z,84.13
2023-05-03T01:16:55.495Z,84.75
2023-05-03T01:19:01.628Z,83.85
2023-05-03T01:21:06.506Z,84.93
2023-05-03T01:23:13.034Z,84.62
2023-05-03T01:25:17.527Z,84.90
2023-05-03T01:27:20.609Z,85.33
2023-05-03T01:29:23.644Z,83.58
2023-05-03T01:31:30.992Z,83.31
2023-05-03T01:33:38.238Z,84.90
2023-05-03T01:35:43.039Z,84.62
2023-05-03T01:37:46.166Z,84.14
2023-05-03T01:39:52.727Z,85.40
2023-05-03T01:41:58.061Z,85.39
2023-05-03T01:44:01.739Z,85.83
2023-05-03T01:46:04.890Z,85.90
2023-05-03T01:48:11.245Z,85.77
2023-05-03T01:50:14.357Z,83.67
2023-05-03T01:52:17.453Z,83.61
2023-05-03T01:54:20.767Z,84.73
2023-05-03T01:56:23.829Z,84.93
2023-05-03T01:58:28.317Z,85.69
2023-05-03T02:00:31.432Z,85.30
2023-05-03T02:02:34.585Z,86.03
2023-05-03T02:04:38.003Z,83.86
2023-05-03T02:06:41.488Z,84.46
2023-05-03T02:08:44.594Z,85.59
2023-05-03T02:10:47.589Z,84.10
2023-05-03T02:12:52.530Z,84.77
2023-05-03T02:14:57.316Z,84.77
2023-05-03T02:17:00.722Z,84.47
2023-05-03T02:19:04.119Z,86.11
2023-05-03T02:21:07.869Z,85.04
2023-05-03T02:23:10.958Z,85.08
2023-05-03T02:25:14.013Z,85.76
2023-05-03T02:27:17.239Z,84.84
2023-05-03T02:29:20.340Z,84.51
2023-05-03T02:31:24.890Z,85.48
2023-05-03T02:33:27.995Z,86.44
2023-05-03T02:35:31.092Z,85.81
2023-05-03T02:37:34.174Z,85.96
2023-05-03T02:39:40.744Z,85.44
2023-05-03T02:41:44.664Z,86.60
2023-05-03T02:43:48.942Z,86.70
2023-05-03T02:45:52.079Z,86.27
2023-05-03T02:47:58.057Z,85.38
2023-05-03T02:50:03.040Z,87.20
2023-05-03T02:52:09.839Z,85.76
2023-05-03T02:54:12.969Z,85.09
2023-05-03T02:56:16.081Z,86.75
2023-05-03T02:58:19.161Z,86.05
2023-05-03T03:00:22.802Z,85.37
2023-05-03T03:02:26.409Z,86.45
2023-05-03T03:04:31.125Z,86.47
2023-05-03T03:06:34.573Z,86.89
2023-05-03T03:08:37.976Z,86.34
2023-05-03T03:10:42.124Z,87.08
2023-05-03T03:12:47.834Z,87.75
2023-05-03T03:14:59.583Z,85.93
2023-05-03T03:17:03.789Z,85.50
2023-05-03T03:19:06.866Z,87.19
2023-05-03T03:21:11.229Z,86.63
2023-05-03T03:23:14.538Z,86.43
2023-05-03T03:25:18.326Z,86.33
2023-05-03T03:27:23.188Z,86.94
2023-05-03T03:29:27.657Z,87.52
2023-05-03T03:31:31.979Z,85.35
2023-05-03T03:33:35.345Z,87.32
2023-05-03T03:35:44.826Z,85.80
2023-05-03T03:37:50.139Z,86.08
2023-05-03T03:39:54.069Z,86.98
2023-05-03T03:41:57.878Z,86.24
2023-05-03T03:44:01.201Z,88.07
2023-05-03T03:46:04.294Z,86.63
2023-05-03T03:48:07.837Z,87.39
2023-05-03T03:50:11.753Z,88.02
2023-05-03T03:52:15.401Z,86.63
2023-05-03T03:54:19.882Z,86.90
2023-05-03T03:56:26.290Z,85.62
2023-05-03T03:58:31.262Z,86.80
2023-05-03T04:00:35.670Z,86.47
2023-05-03T04:02:46.782Z,86.34
2023-05-03T04:04:53.610Z,87.59
2023-05-03T04:06:56.767Z,86.76
2023-05-03T04:09:02.257Z,86.24
2023-05-03T04:11:12.942Z,87.29
2023-05-03T04:13:21.852Z,87.52
2023-05-03T04:15:27.674Z,88.58
2023-05-03T04:17:35.019Z,88.23
2023-05-03T04:19:41.413Z,88.77
2023-05-03T04:21:44.707Z,87.95
2023-05-03T04:23:47.970Z,88.46
2023-05-03T04:25:53.992Z,88.92
2023-05-03T04:28:00.496Z,88.13
2023-05-03T04:30:06.607Z,87.07
2023-05-03T04:32:11.245Z,88.55
2023-05-03T04:34:15.775Z,88.44
2023-05-03T04:36:25.887Z,87.31
2023-05-03T04:38:30.883Z,87.67
2023-05-03T04:40:37.554Z,88.31
2023-05-03T04:42:44.419Z,87.23
2023-05-03T04:44:49.037Z,88.43
2023-05-03T04:46:52.287Z,87.53
2023-05-03T04:48:55.485Z,87.97
2023-05-03T04:50:59.132Z,86.96
2023-05-03T04:53:02.451Z,88.39
2023-05-03T04:55:08.397Z,87.74
2023-05-03T04:57:12.562Z,89.06
2023-05-03T04:59:15.887Z,87.64
2023-05-03T05:01:26.351Z,87.98
2023-05-03T05:03:32.126Z,88.17
2023-05-03T05:05:38.757Z,88.32
2023-05-03T05:07:43.093Z,88.50
2023-05-03T05:09:48.109Z,87.34
2023-05-03T05:11:54.497Z,87.23
2023-05-03T05:13:59.822Z,88.31
2023-05-03T05:16:03.282Z,88.58
2023-05-03T05:18:09.304Z,86.53
2023-05-03T05:20:13.615Z,87.19
2023-05-03T05:22:21.299Z,85.68
2023-05-03T05:24:30.348Z,87.04
2023-05-03T05:26:33.732Z,85.26
2023-05-03T05:28:36.937Z,85.60
2023-05-03T05:30:40.727Z,83.40
2023-05-03T05:32:44.163Z,83.51
2023-05-03T05:34:53.127Z,83.06
2023-05-03T05:36:57.307Z,81.14
2023-05-03T05:39:01.074Z,81.49
2023-05-03T05:41:06.786Z,80.47
2023-05-03T05:43:11.071Z,80.07
2023-05-03T05:45:16.825Z,79.44
2023-05-03T05:47:20.035Z,77.76
2023-05-03T05:49:24.387Z,78.07
2023-05-03T05:51:30.576Z,76.89
2023-05-03T05:53:34.306Z,75.97
2023-05-03T05:55:38.911Z,76.16
2023-05-03T05:57:42.723Z,76.05
2023-05-03T05:59:47.001Z,76.27
2023-05-03T06:01:50.509Z,74.51
2023-05-03T06:03:56.512Z,74.65
2023-05-03T06:06:00.091Z,74.83
2023-05-03T06:08:04.575Z,73.29
2023-05-03T06:10:09.045Z,72.88
2023-05-03T06:12:16.104Z,73.11
2023-05-03T06:14:20.787Z,72.31
2023-05-03T06:16:24.519Z,73.53
2023-05-03T06:18:27.769Z,70.76
2023-05-03T06:20:30.806Z,72.13
2023-05-03T06:22:34.776Z,70.70
2023-05-03T06:24:39.229Z,70.71
2023-05-03T06:26:42.356Z,72.12
2023-05-03T06:28:47.236Z,69.97
2023-05-03T06:30:51.046Z,69.23
2023-05-03T06:32:54.264Z,70.12
2023-05-03T06:34:59.483Z,69.21
2023-05-03T06:37:02.799Z,69.07
2023-05-03T06:39:06.178Z,70.07
2023-05-03T06:41:10.589Z,69.16
2023-05-03T06:43:13.875Z,69.20
2023-05-03T06:45:29.209Z,70.79
2023-05-03T06:47:34.777Z,70.91
2023-05-03T06:49:38.197Z,70.34
2023-05-03T06:51:41.383Z,68.83
2023-05-03T06:53:46.184Z,67.88
2023-05-03T06:55:52.062Z,67.49
2023-05-03T06:57:56.915Z,68.33
2023-05-03T07:00:00.294Z,68.14
2023-05-03T07:02:03.632Z,70.65
2023-05-03T07:04:06.950Z,69.10
2023-05-03T07:06:10.179Z,67.25
2023-05-03T07:08:13.294Z,66.08
2023-05-03T07:10:16.354Z,67.47
2023-05-03T07:12:19.468Z,66.94
2023-05-03T07:14:24.290Z,67.98
2023-05-03T07:16:27.454Z,67.92
2023-05-03T07:18:31.489Z,67.66
2023-05-03T07:20:34.644Z,65.93
2023-05-03T07:22:37.736Z,65.73
2023-05-03T07:24:40.869Z,66.15
2023-05-03T07:26:44.731Z,67.19
2023-05-03T07:28:48.132Z,67.05
2023-05-03T07:30:52.530Z,66.89
2023-05-03T07:32:55.609Z,65.96
2023-05-03T07:34:58.754Z,64.13
2023-05-03T07:37:01.944Z,63.85
2023-05-03T07:39:05.212Z,65.26
2023-05-03T07:41:08.270Z,65.47
2023-05-03T07:43:11.456Z,64.91
2023-05-03T07:45:14.455Z,65.00
2023-05-03T07:47:18.945Z,64.03
2023-05-03T07:49:22.220Z,65.57
2023-05-03T07:51:25.877Z,64.60
2023-05-03T07:53:29.177Z,62.92
2023-05-03T07:55:33.012Z,63.55
2023-05-03T07:57:36.318Z,63.64
2023-05-03T07:59:39.786Z,63.95
2023-05-03T08:01:42.953Z,63.83
2023-05-03T08:03:50.579Z,65.28
2023-05-03T08:05:53.930Z,63.92
2023-05-03T08:07:56.917Z,64.04
2023-05-03T08:10:00.113Z,63.07
2023-05-03T08:12:03.538Z,64.59
2023-05-03T08:14:06.683Z,63.95
2023-05-03T08:16:09.810Z,63.88
2023-05-03T08:18:12.822Z,64.21
2023-05-03T08:20:17.461Z,63.75
2023-05-03T08:22:20.556Z,63.88
2023-05-03T08:24:24.521Z,63.43
2023-05-03T08:26:28.624Z,64.05
2023-05-03T08:28:31.692Z,65.90
2023-05-03T08:30:34.752Z,65.59
2023-05-03T08:32:37.977Z,66.39
2023-05-03T08:34:41.603Z,66.53
2023-05-03T08:36:46.061Z,63.28
2023-05-03T08:38:49.144Z,64.17
2023-05-03T08:40:53.106Z,64.12
2023-05-03T08:42:57.306Z,64.20
2023-05-03T08:45:00.548Z,64.16
2023-05-03T08:47:05.537Z,63.98
2023-05-03T08:49:09.115Z,63.39
2023-05-03T08:51:12.354Z,63.30
2023-05-03T08:53:17.005Z,62.76
2023-05-03T08:55:20.268Z,63.77
2023-05-03T08:57:25.266Z,64.39
2023-05-03T08:59:29.537Z,64.28
2023-05-03T09:01:32.719Z,64.54
2023-05-03T09:03:37.271Z,65.14
2023-05-03T09:05:40.584Z,63.93
2023-05-03T09:07:46.143Z,63.41
2023-05-03T09:09:50.685Z,63.04
2023-05-03T09:11:53.702Z,64.90
2023-05-03T09:14:09.855Z,65.08
2023-05-03T09:16:12.952Z,65.30
2023-05-03T09:18:17.604Z,64.51
2023-05-03T09:20:35.291Z,62.66
2023-05-03T09:22:38.586Z,63.29
2023-05-03T09:24:54.152Z,61.92
2023-05-03T09:26:58.582Z,63.78
2023-05-03T09:29:02.646Z,64.47
2023-05-03T09:31:07.811Z,64.42
2023-05-03T09:33:11.577Z,64.83
2023-05-03T09:35:15.256Z,64.43
2023-05-03T09:37:18.745Z,64.33
2023-05-03T09:39:22.028Z,64.09
2023-05-03T09:41:30.364Z,63.77
2023-05-03T09:43:33.582Z,61.61
2023-05-03T09:45:37.198Z,64.87
2023-05-03T09:47:51.166Z,62.93
2023-05-03T09:49:54.461Z,64.41
2023-05-03T09:51:57.852Z,62.81
2023-05-03T09:54:00.956Z,66.00
2023-05-03T09:56:05.216Z,65.08
2023-05-03T09:58:09.764Z,65.61
2023-05-03T10:00:16.799Z,64.93
2023-05-03T10:02:20.036Z,64.46
2023-05-03T10:04:26.181Z,60.92
2023-05-03T10:06:33.066Z,61.12
2023-05-03T10:08:41.241Z,61.68
2023-05-03T10:10:45.705Z,62.86
2023-05-03T10:12:49.563Z,64.01
2023-05-03T10:14:56.124Z,65.12
2023-05-03T10:17:01.811Z,63.01
2023-05-03T10:19:10.193Z,62.56
2023-05-03T10:21:17.970Z,61.52
2023-05-03T10:23:21.116Z,62.48
2023-05-03T10:25:24.377Z,62.16
2023-05-03T10:27:38.745Z,62.12
2023-05-03T10:29:49.746Z,64.30
2023-05-03T10:31:54.335Z,65.65
2023-05-03T10:33:57.440Z,64.07
2023-05-03T10:36:01.520Z,64.91
2023-05-03T10:38:15.187Z,63.35
2023-05-03T10:40:22.404Z,63.70
2023-05-03T10:42:26.780Z,62.15
2023-05-03T10:44:36.297Z,61.45
2023-05-03T10:46:39.494Z,60.86
2023-05-03T10:48:46.113Z,61.00
2023-05-03T10:50:50.145Z,61.25
2023-05-03T10:52:53.298Z,62.20
2023-05-03T10:54:56.366Z,61.70
2023-05-03T10:57:00.004Z,63.45
2023-05-03T10:59:03.070Z,61.43
2023-05-03T11:01:06.951Z,61.83
2023-05-03T11:03:35.062Z,62.34
2023-05-03T11:05:40.376Z,62.08
2023-05-03T11:07:43.414Z,62.18
2023-05-03T11:09:47.727Z,63.51
2023-05-03T11:11:50.849Z,60.48
2023-05-03T11:13:54.500Z,63.07
2023-05-03T11:15:57.893Z,62.53
2023-05-03T11:18:01.236Z,62.81
2023-05-03T11:20:05.054Z,60.22
2023-05-03T11:22:09.715Z,62.25
2023-05-03T11:24:12.743Z,61.40
2023-05-03T11:26:16.454Z,60.99
2023-05-03T11:28:19.690Z,58.86
2023-05-03T11:30:22.845Z,58.98
2023-05-03T11:32:28.023Z,59.07
2023-05-03T11:34:31.224Z,59.90
2023-05-03T11:36:34.343Z,59.43
2023-05-03T11:38:39.661Z,56.79
2023-05-03T11:40:42.784Z,58.71
2023-05-03T11:42:53.345Z,59.57
2023-05-03T11:44:56.738Z,60.12
2023-05-03T11:47:00.152Z,58.38
2023-05-03T11:49:04.113Z,57.61
2023-05-03T11:51:12.598Z,56.24
2023-05-03T11:53:16.657Z,57.25
2023-05-03T11:55:22.764Z,56.23
2023-05-03T11:57:26.553Z,57.87
2023-05-03T11:59:37.120Z,56.55
2023-05-03T12:01:40.209Z,58.01
2023-05-03T12:03:43.435Z,55.60
2023-05-03T12:05:48.380Z,55.33
2023-05-03T12:07:53.081Z,57.60
2023-05-03T12:10:10.721Z,57.09
2023-05-03T12:12:26.126Z,56.88
2023-05-03T12:14:30.381Z,57.33
2023-05-03T12:16:50.305Z,58.11
2023-05-03T12:18:57.462Z,56.55
2023-05-03T12:23:10.135Z,57.17
2023-05-03T12:25:15.581Z,58.28
2023-05-03T12:27:19.644Z,57.33
2023-05-03T12:29:24.816Z,57.09
2023-05-03T12:31:29.492Z,56.83
2023-05-03T12:33:33.769Z,58.46
2023-05-03T12:35:40.273Z,57.05
2023-05-03T12:37:44.297Z,56.22
2023-05-03T12:39:58.444Z,57.76
2023-05-03T12:42:13.787Z,58.49
2023-05-03T12:44:22.407Z,59.54
2023-05-03T12:46:34.478Z,59.21
2023-05-03T12:48:38.275Z,58.73
2023-05-03T12:50:45.301Z,57.55
2023-05-03T12:52:52.662Z,56.74
2023-05-03T12:54:56.302Z,57.38
2023-05-03T12:57:07.896Z,58.02
2023-05-03T12:59:31.783Z,58.25
2023-05-03T13:02:23.515Z,57.12
2023-05-03T13:04:36.554Z,56.68
2023-05-03T13:06:23.264Z,58.87
2023-05-03T13:08:33.566Z,58.75
2023-05-03T13:10:39.080Z,55.76
2023-05-03T13:12:42.867Z,57.89
2023-05-03T13:14:46.000Z,57.76
2023-05-03T13:16:51.403Z,57.45
2023-05-03T13:18:56.691Z,59.76
2023-05-03T13:20:59.924Z,58.36
2023-05-03T13:23:03.033Z,57.49
2023-05-03T13:25:07.243Z,56.97
2023-05-03T13:27:11.562Z,57.43
2023-05-03T13:29:14.742Z,56.41
2023-05-03T13:31:17.917Z,56.70
2023-05-03T13:33:22.747Z,55.46
2023-05-03T13:35:26.017Z,55.27
2023-05-03T13:37:29.107Z,56.07
2023-05-03T13:39:32.208Z,56.63
2023-05-03T13:41:36.748Z,55.32
2023-05-03T13:43:42.133Z,55.57
2023-05-03T13:48:13.950Z,54.72
2023-05-03T13:50:13.183Z,56.11
2023-05-03T13:52:16.267Z,55.72
2023-05-03T13:54:19.445Z,57.64
2023-05-03T13:56:22.460Z,54.12
2023-05-03T13:58:25.609Z,54.92
2023-05-03T14:00:30.338Z,56.21
2023-05-03T14:02:35.324Z,55.69
2023-05-03T14:04:38.839Z,54.78
2023-05-03T14:06:43.528Z,55.97
2023-05-03T14:08:46.673Z,54.61
2023-05-03T14:10:50.690Z,55.28
2023-05-03T14:12:53.930Z,54.51
2023-05-03T14:14:57.156Z,54.24
2023-05-03T14:17:00.258Z,54.02
2023-05-03T14:19:03.461Z,54.42
2023-05-03T14:21:06.626Z,55.93
2023-05-03T14:23:11.256Z,55.98
2023-05-03T14:25:14.396Z,55.78
2023-05-03T14:27:21.642Z,56.60
2023-05-03T14:29:24.761Z,57.19
2023-05-03T14:31:27.863Z,54.72
2023-05-03T14:33:30.974Z,54.72
2023-05-03T14:35:34.129Z,56.81
2023-05-03T14:37:37.767Z,54.11
2023-05-03T14:39:42.192Z,53.79
2023-05-03T14:41:45.360Z,54.73
2023-05-03T14:43:48.401Z,55.98
2023-05-03T14:45:51.551Z,54.19
2023-05-03T14:47:54.931Z,54.46
2023-05-03T14:49:58.136Z,55.28
2023-05-03T14:52:01.384Z,55.08
2023-05-03T14:54:04.460Z,56.75
2023-05-03T14:56:09.220Z,56.95
2023-05-03T14:58:12.951Z,55.50
2023-05-03T15:00:18.411Z,55.71
2023-05-03T15:02:22.807Z,55.80
2023-05-03T15:04:26.322Z,56.62
2023-05-03T15:06:32.465Z,56.77
2023-05-03T15:08:35.482Z,56.23
2023-05-03T15:10:39.686Z,56.16
2023-05-03T15:12:44.165Z,55.33
2023-05-03T15:14:47.283Z,56.45
2023-05-03T15:16:50.393Z,57.04
2023-05-03T15:18:53.510Z,55.66
2023-05-03T15:20:57.368Z,56.25
2023-05-03T15:23:00.494Z,54.97
2023-05-03T15:25:03.632Z,55.45
2023-05-03T15:27:06.665Z,55.76
2023-05-03T15:29:11.554Z,56.95
2023-05-03T15:31:15.073Z,56.62
2023-05-03T15:33:18.633Z,58.21
2023-05-03T15:35:21.712Z,56.84
2023-05-03T15:37:24.830Z,57.34
2023-05-03T15:39:28.026Z,55.92
2023-05-03T15:41:31.246Z,56.12
2023-05-03T15:43:35.023Z,56.33
2023-05-03T15:45:39.550Z,56.28
2023-05-03T15:47:43.224Z,55.26
2023-05-03T15:49:46.327Z,54.52
2023-05-03T15:51:49.743Z,55.21
2023-05-03T15:53:54.499Z,55.54
2023-05-03T15:55:58.243Z,55.08
2023-05-03T15:58:02.258Z,56.36
2023-05-03T16:00:13.379Z,55.74
2023-05-03T16:02:17.980Z,56.67
2023-05-03T16:04:21.148Z,56.21
2023-05-03T16:06:24.697Z,55.17
2023-05-03T16:08:27.771Z,55.04
2023-05-03T16:10:31.473Z,55.76
2023-05-03T16:12:35.316Z,55.81
2023-05-03T16:14:38.412Z,56.55
2023-05-03T16:16:41.890Z,56.44
2023-05-03T16:18:46.428Z,56.13
2023-05-03T16:20:49.536Z,55.18
2023-05-03T16:22:52.927Z,56.04
2023-05-03T16:24:56.165Z,55.84
2023-05-03T16:26:59.248Z,56.56
2023-05-03T16:29:02.242Z,54.48
2023-05-03T16:31:06.122Z,54.22
2023-05-03T16:33:09.351Z,54.17
2023-05-03T16:35:13.998Z,55.54
2023-05-03T16:37:16.958Z,53.93
2023-05-03T16:39:20.039Z,55.65
2023-05-03T16:41:24.297Z,56.27
2023-05-03T16:43:27.510Z,56.72
2023-05-03T16:45:30.686Z,55.66
2023-05-03T16:47:35.062Z,56.57
2023-05-03T16:49:38.157Z,57.55
2023-05-03T16:51:43.138Z,57.14
2023-05-03T16:53:46.311Z,56.33
2023-05-03T16:55:49.932Z,57.37
2023-05-03T16:57:53.040Z,56.53
2023-05-03T16:59:56.073Z,56.20
2023-05-03T17:01:59.769Z,57.72
2023-05-03T17:04:04.645Z,57.50
2023-05-03T17:06:08.491Z,56.69
2023-05-03T17:08:13.528Z,57.25
2023-05-03T17:10:16.622Z,55.90
2023-05-03T17:12:19.862Z,55.62
2023-05-03T17:14:22.920Z,56.19
2023-05-03T17:16:26.611Z,55.70
2023-05-03T17:18:29.782Z,56.04
2023-05-03T17:20:32.995Z,56.15
2023-05-03T17:22:36.238Z,56.03
2023-05-03T17:24:40.813Z,56.79
2023-05-03T17:26:43.954Z,56.43
2023-05-03T17:28:48.293Z,57.02
2023-05-03T17:30:51.411Z,56.89
2023-05-03T17:32:54.485Z,56.45
2023-05-03T17:34:58.202Z,56.73
2023-05-03T17:37:01.399Z,57.87
2023-05-03T17:39:05.159Z,57.79
2023-05-03T17:41:10.413Z,56.90
2023-05-03T17:43:13.799Z,57.52
2023-05-03T17:45:17.221Z,56.95
2023-05-03T17:47:20.902Z,56.85
2023-05-03T17:49:23.979Z,56.79
2023-05-03T17:51:27.074Z,56.73
2023-05-03T17:53:30.114Z,56.72
2023-05-03T17:55:36.131Z,56.98
2023-05-03T17:57:40.620Z,57.83
2023-05-03T17:59:43.976Z,57.49
2023-05-03T18:01:48.473Z,58.20
2023-05-03T18:03:51.810Z,58.42
2023-05-03T18:05:55.201Z,58.44
2023-05-03T18:07:58.357Z,58.31
2023-05-03T18:10:01.920Z,58.88
2023-05-03T18:12:05.678Z,59.22
2023-05-03T18:14:10.102Z,58.84
2023-05-03T18:16:13.265Z,59.20
2023-05-03T18:18:16.435Z,59.54
2023-05-03T18:20:19.950Z,59.95
2023-05-03T18:22:23.401Z,59.70
2023-05-03T18:24:26.597Z,59.92
2023-05-03T18:26:30.255Z,59.66
2023-05-03T18:28:33.346Z,59.71
2023-05-03T18:30:37.789Z,60.68
2023-05-03T18:32:41.132Z,60.38
2023-05-03T18:34:44.588Z,60.65
2023-05-03T18:36:47.804Z,61.20
2023-05-03T18:38:53.654Z,60.66
2023-05-03T18:40:57.089Z,61.47
2023-05-03T18:43:00.276Z,60.70
2023-05-03T18:45:04.507Z,61.91
2023-05-03T18:47:10.371Z,61.00
2023-05-03T18:49:13.609Z,61.19
2023-05-03T18:51:17.165Z,60.79
2023-05-03T18:53:20.537Z,61.37
2023-05-03T18:55:23.840Z,61.37
2023-05-03T18:57:27.391Z,62.03
2023-05-03T18:59:30.763Z,62.02
2023-05-03T19:01:34.051Z,62.74
2023-05-03T19:03:38.670Z,62.44
2023-05-03T19:05:42.058Z,62.89
2023-05-03T19:07:47.545Z,62.25
2023-05-03T19:09:54.337Z,63.82
2023-05-03T19:11:58.522Z,64.02
2023-05-03T19:14:01.883Z,64.43
2023-05-03T19:16:05.033Z,63.14
2023-05-03T19:18:08.229Z,63.68
2023-05-03T19:20:13.641Z,63.02
2023-05-03T19:22:16.807Z,63.21
2023-05-03T19:24:20.041Z,63.68
2023-05-03T19:26:23.126Z,64.76
2023-05-03T19:28:26.453Z,64.14
2023-05-03T19:30:29.625Z,63.66
2023-05-03T19:32:35.352Z,63.94
2023-05-03T19:34:38.498Z,64.04
2023-05-03T19:36:43.183Z,64.01
2023-05-03T19:38:46.373Z,64.37
2023-05-03T19:40:56.991Z,65.11
2023-05-03T19:43:00.185Z,64.57
2023-05-03T19:45:04.135Z,65.12
2023-05-03T19:47:08.748Z,66.69
2023-05-03T19:49:11.869Z,66.28
2023-05-03T19:51:15.228Z,65.66
2023-05-03T19:53:19.876Z,66.96
2023-05-03T19:55:23.056Z,66.98
2023-05-03T19:57:26.572Z,64.76
2023-05-03T19:59:29.933Z,64.87
2023-05-03T20:01:32.991Z,66.63
2023-05-03T20:03:36.331Z,67.18
2023-05-03T20:05:39.617Z,65.43
2023-05-03T20:07:42.928Z,64.86
2023-05-03T20:09:47.644Z,66.19
2023-05-03T20:11:51.000Z,66.53
2023-05-03T20:13:54.400Z,66.64
2023-05-03T20:15:57.546Z,65.57
2023-05-03T20:18:00.798Z,65.52
2023-05-03T20:20:08.456Z,66.40
2023-05-03T20:22:12.326Z,65.36
2023-05-03T20:24:15.422Z,65.29
2023-05-03T20:26:19.830Z,66.23
2023-05-03T20:28:23.187Z,66.64
2023-05-03T20:30:26.439Z,66.68
2023-05-03T20:32:29.578Z,67.12
2023-05-03T20:34:33.387Z,67.62
2023-05-03T20:36:36.470Z,66.04
2023-05-03T20:38:39.644Z,65.95
2023-05-03T20:40:42.979Z,67.36
2023-05-03T20:42:47.385Z,67.41
2023-05-03T20:44:52.130Z,66.74
2023-05-03T20:46:55.362Z,66.18
2023-05-03T20:48:58.736Z,65.81
2023-05-03T20:51:01.853Z,64.95
2023-05-03T20:53:05.111Z,66.44
2023-05-03T20:55:08.889Z,67.15
2023-05-03T20:57:13.645Z,66.14
2023-05-03T20:59:18.094Z,65.91
2023-05-03T21:01:22.763Z,66.30
2023-05-03T21:03:26.224Z,66.01
2023-05-03T21:05:29.988Z,66.05
2023-05-03T21:07:33.024Z,66.41
2023-05-03T21:09:36.189Z,66.71
2023-05-03T21:11:48.254Z,66.78
2023-05-03T21:13:51.336Z,66.84
2023-05-03T21:15:56.108Z,65.70
2023-05-03T21:17:59.197Z,65.66
2023-05-03T21:20:02.426Z,66.34
2023-05-03T21:22:05.707Z,65.85
2023-05-03T21:24:09.384Z,67.23
2023-05-03T21:26:12.509Z,66.09
2023-05-03T21:28:15.579Z,66.36
2023-05-03T21:30:20.459Z,65.39
2023-05-03T21:32:25.180Z,65.52
2023-05-03T21:34:28.269Z,66.40
2023-05-03T21:36:32.148Z,66.03
2023-05-03T21:38:35.329Z,65.27
2023-05-03T21:40:38.417Z,65.03
2023-05-03T21:42:41.579Z,65.49
2023-05-03T21:44:48.855Z,65.63
2023-05-03T21:46:52.261Z,66.20
2023-05-03T21:48:56.713Z,65.06
2023-05-03T21:50:59.712Z,65.37
2023-05-03T21:53:02.831Z,66.26
2023-05-03T21:55:06.856Z,65.98
2023-05-03T21:57:09.875Z,66.11
2023-05-03T21:59:12.981Z,65.63
2023-05-03T22:01:17.234Z,65.08
2023-05-03T22:03:20.503Z,65.29
2023-05-03T22:05:25.319Z,65.37
2023-05-03T22:07:28.358Z,66.01
2023-05-03T22:09:31.514Z,65.31
2023-05-03T22:11:34.568Z,65.87
2023-05-03T22:13:50.362Z,66.42
2023-05-03T22:15:57.983Z,66.37
2023-05-03T22:18:01.236Z,66.24
2023-05-03T22:20:05.997Z,66.76
2023-05-03T22:22:10.669Z,67.53
2023-05-03T22:24:13.850Z,67.74
2023-05-03T22:26:16.989Z,67.69
2023-05-03T22:28:20.584Z,68.24
2023-05-03T22:30:23.696Z,68.05
2023-05-03T22:32:26.755Z,68.57
2023-05-03T22:34:29.948Z,68.01
2023-05-03T22:36:33.260Z,68.12
2023-05-03T22:38:37.789Z,67.57
2023-05-03T22:40:40.993Z,67.86
2023-05-03T22:42:44.120Z,67.63
2023-05-03T22:44:47.226Z,67.64
2023-05-03T22:46:50.481Z,67.74
2023-05-03T22:48:53.502Z,67.47
2023-05-03T22:50:56.577Z,67.43
2023-05-03T22:52:59.559Z,67.60
2023-05-03T22:55:04.154Z,67.74
2023-05-03T22:57:07.848Z,68.05
2023-05-03T22:59:11.887Z,68.40
2023-05-03T23:01:15.569Z,68.53
2023-05-03T23:03:18.808Z,68.40
2023-05-03T23:05:22.197Z,68.18
2023-05-03T23:07:25.307Z,67.84
2023-05-03T23:09:28.855Z,67.65
2023-05-03T23:11:33.523Z,68.14
2023-05-03T23:13:36.897Z,67.42
2023-05-03T23:15:40.090Z,67.64
2023-05-03T23:17:43.228Z,67.24
2023-05-03T23:19:46.707Z,67.17
2023-05-03T23:21:49.958Z,67.83
2023-05-03T23:23:53.029Z,67.77
2023-05-03T23:25:56.799Z,67.89
2023-05-03T23:28:01.947Z,67.48
2023-05-03T23:30:06.228Z,67.25
2023-05-03T23:32:09.864Z,67.36
2023-05-03T23:34:13.630Z,67.57
2023-05-03T23:36:17.020Z,67.33
2023-05-03T23:38:20.129Z,67.68
2023-05-03T23:40:23.363Z,67.76
2023-05-03T23:42:26.462Z,67.41
2023-05-03T23:44:46.366Z,69.06
2023-05-03T23:46:49.830Z,69.17
2023-05-03T23:48:52.933Z,68.58
2023-05-03T23:50:55.970Z,68.98
2023-05-03T23:52:59.617Z,68.38
2023-05-03T23:55:02.740Z,68.13
2023-05-03T23:57:05.791Z,67.68
2023-05-03T23:59:09.128Z,67.69
